Time;durP1;ratioP1;P1;durP2;ratioP2;P2;SDS_P1;SDS_P2;PMS_P1;PMS_P2;Temp;Humidity;BMP_temperature;BMP_pressure;BME280_temperature;BME280_humidity;BME280_pressure;Samples;Min_cycle;Max_cycle;Signal;HPM_P1;HPM_P2
2021/12/16 00:05:33;;;;;;;49.97;29.58;;;10.60;99.90;;;;;;4141571;28;20073;-73
2021/12/16 00:07:41;;;;;;;50.60;29.98;;;10.60;99.90;;;;;;4131296;28;20030;-73
2021/12/16 00:35:14;;;;;;;51.70;29.85;;;10.60;99.90;;;;;;4142316;28;20041;-73
2021/12/16 00:37:15;;;;;;;44.78;27.38;;;10.60;99.90;;;;;;4125359;28;20037;-73
2021/12/16 00:39:29;;;;;;;45.28;28.30;;;10.60;99.90;;;;;;4114755;28;20074;-73
2021/12/16 00:41:29;;;;;;;51.95;29.42;;;10.60;99.90;;;;;;4142190;28;20030;-73
2021/12/16 00:43:41;;;;;;;51.22;28.95;;;10.60;99.90;;;;;;4131473;28;20034;-73
2021/12/16 00:46:09;;;;;;;53.85;30.23;;;10.60;99.90;;;;;;4139134;28;20030;-73
2021/12/16 00:48:21;;;;;;;45.15;27.08;;;10.60;99.90;;;;;;4136136;28;20451;-73
2021/12/16 00:54:56;;;;;;;49.28;29.58;;;10.60;99.90;;;;;;4135902;28;20313;-73
2021/12/16 00:57:04;;;;;;;45.15;26.67;;;10.70;99.90;;;;;;4140823;28;20087;-73
2021/12/16 00:59:07;;;;;;;53.10;30.10;;;10.70;99.90;;;;;;4139481;28;20038;-73
2021/12/16 01:01:20;;;;;;;50.58;30.00;;;10.70;99.90;;;;;;4141837;28;20049;-73
2021/12/16 01:03:43;;;;;;;;;;;10.70;99.90;;;;;;4137424;28;20037;-73
2021/12/16 01:08:46;;;;;;;45.17;27.40;;;10.70;99.90;;;;;;4142703;28;20057;-73
2021/12/16 01:34:19;;;;;;;49.30;29.85;;;10.60;99.90;;;;;;4140309;28;20091;-73
2021/12/16 01:47:19;;;;;;;51.50;29.80;;;10.60;99.90;;;;;;4134159;28;20033;-73
2021/12/16 01:51:37;;;;;;;49.63;29.85;;;10.50;99.90;;;;;;4140871;28;20163;-73
2021/12/16 01:58:19;;;;;;;48.60;29.02;;;10.40;99.90;;;;;;4136698;28;20338;-73
2021/12/16 02:02:36;;;;;;;48.90;30.38;;;10.40;99.90;;;;;;4148346;23;20101;-74
2021/12/16 02:04:44;;;;;;;46.17;28.05;;;10.40;99.90;;;;;;4114081;28;20510;-74
2021/12/16 02:07:23;;;;;;;50.75;28.80;;;10.40;99.90;;;;;;4117703;28;20054;-74
2021/12/16 02:09:21;;;;;;;49.38;28.67;;;10.40;99.90;;;;;;4119221;28;20118;-74
2021/12/16 02:27:46;;;;;;;42.10;26.73;;;10.30;99.90;;;;;;4123789;28;20062;-74
2021/12/16 02:30:04;;;;;;;48.75;27.92;;;10.40;99.90;;;;;;4125342;28;20037;-74
2021/12/16 02:34:56;;;;;;;39.40;24.98;;;10.30;99.90;;;;;;4103631;28;20112;-74
2021/12/16 02:36:52;;;;;;;44.75;26.20;;;10.40;99.90;;;;;;4115721;28;20038;-74
2021/12/16 02:39:19;;;;;;;43.92;25.33;;;10.30;99.90;;;;;;4132927;28;20026;-74
2021/12/16 02:41:21;;;;;;;46.25;27.30;;;10.40;99.90;;;;;;4112193;28;20041;-74
2021/12/16 02:50:07;;;;;;;43.47;26.27;;;10.40;99.90;;;;;;4124552;28;20030;-74
2021/12/16 02:52:08;;;;;;;41.90;25.63;;;10.30;99.90;;;;;;4089527;28;20138;-74
2021/12/16 02:54:09;;;;;;;43.17;25.65;;;10.40;99.90;;;;;;4125570;28;20023;-74
2021/12/16 02:56:09;;;;;;;41.40;26.45;;;10.40;99.90;;;;;;4125959;28;20055;-74
2021/12/16 02:58:10;;;;;;;41.63;25.65;;;10.40;99.90;;;;;;4122006;28;20034;-74
2021/12/16 03:00:14;;;;;;;42.55;24.90;;;10.40;99.90;;;;;;4110714;28;20028;-73
2021/12/16 03:02:17;;;;;;;43.20;25.92;;;10.40;99.90;;;;;;4122520;28;20058;-74
2021/12/16 03:04:20;;;;;;;42.05;25.50;;;10.40;99.90;;;;;;4108132;28;20038;-74
2021/12/16 03:06:21;;;;;;;41.45;25.35;;;10.40;99.90;;;;;;4123300;28;20027;-74
2021/12/16 03:08:23;;;;;;;42.53;24.88;;;10.40;99.90;;;;;;4133506;28;20527;-74
2021/12/16 03:12:48;;;;;;;37.67;23.92;;;10.40;99.90;;;;;;4123611;28;20034;-74
2021/12/16 03:14:55;;;;;;;38.08;23.08;;;10.50;99.90;;;;;;4117881;28;20031;-74
2021/12/16 03:19:19;;;;;;;44.88;27.58;;;10.50;99.90;;;;;;4124733;28;20057;-74
2021/12/16 03:21:30;;;;;;;44.20;26.48;;;10.50;99.90;;;;;;4124381;28;20050;-74
2021/12/16 03:24:00;;;;;;;40.10;24.58;;;10.40;99.90;;;;;;4111242;28;20093;-74
2021/12/16 03:27:20;;;;;;;35.80;22.52;;;10.50;99.90;;;;;;4122763;28;20483;-74
2021/12/16 03:29:04;;;;;;;34.70;22.75;;;10.50;99.90;;;;;;4110430;28;20100;-74
2021/12/16 03:35:40;;;;;;;38.78;23.95;;;10.50;99.90;;;;;;4107190;28;20487;-74
2021/12/16 03:37:42;;;;;;;39.42;24.52;;;10.50;99.90;;;;;;4124508;28;20105;-74
2021/12/16 03:39:48;;;;;;;34.92;22.10;;;10.50;99.90;;;;;;4123339;28;20070;-74
2021/12/16 03:41:49;;;;;;;38.58;23.63;;;10.50;99.90;;;;;;4128319;28;20038;-74
2021/12/16 03:43:51;;;;;;;38.45;23.45;;;10.50;99.90;;;;;;4132315;28;20028;-74
2021/12/16 03:48:27;;;;;;;36.38;22.85;;;10.40;99.90;;;;;;4124236;28;20494;-74
2021/12/16 03:50:28;;;;;;;43.33;25.88;;;10.40;99.90;;;;;;4124985;28;20035;-74
2021/12/16 03:52:29;;;;;;;37.65;23.27;;;10.40;99.90;;;;;;4132274;28;20053;-74
2021/12/16 03:54:33;;;;;;;41.25;24.30;;;10.40;99.90;;;;;;4127474;28;20035;-74
2021/12/16 03:56:34;;;;;;;42.10;25.08;;;10.40;99.90;;;;;;4126162;28;20054;-74
2021/12/16 03:58:34;;;;;;;39.38;24.27;;;10.40;99.90;;;;;;4121996;28;20043;-74
2021/12/16 04:00:42;;;;;;;38.65;23.88;;;10.40;99.90;;;;;;4120069;28;20609;-74
2021/12/16 04:02:43;;;;;;;43.40;25.67;;;10.40;99.90;;;;;;4128329;28;20494;-74
2021/12/16 04:04:44;;;;;;;40.45;23.98;;;10.30;99.90;;;;;;4123092;28;20088;-74
2021/12/16 04:06:45;;;;;;;39.75;25.08;;;10.30;99.90;;;;;;4115163;28;20027;-74
2021/12/16 04:08:46;;;;;;;42.25;25.10;;;10.30;99.90;;;;;;4126555;28;20050;-74
2021/12/16 04:11:02;;;;;;;37.03;22.63;;;10.30;99.90;;;;;;4115934;28;20157;-74
2021/12/16 04:13:06;;;;;;;43.00;25.77;;;10.30;99.90;;;;;;4119727;28;20119;-73
2021/12/16 04:15:08;;;;;;;41.28;26.10;;;10.30;99.90;;;;;;4111219;28;20031;-74
2021/12/16 04:17:11;;;;;;;42.50;26.33;;;10.30;99.90;;;;;;4137243;28;20034;-74
2021/12/16 04:19:19;;;;;;;42.80;26.42;;;10.30;99.90;;;;;;4125958;28;20034;-74
2021/12/16 04:21:21;;;;;;;40.65;24.63;;;10.20;99.90;;;;;;4119318;28;20063;-74
2021/12/16 04:23:22;;;;;;;41.72;25.30;;;10.20;99.90;;;;;;4127429;28;20109;-74
2021/12/16 04:25:30;;;;;;;39.90;23.88;;;10.20;99.90;;;;;;4109878;28;20372;-74
2021/12/16 04:27:32;;;;;;;46.35;26.60;;;10.20;99.90;;;;;;4118071;28;20061;-74
2021/12/16 04:29:33;;;;;;;44.65;26.70;;;10.20;99.90;;;;;;4132149;28;20030;-74
2021/12/16 04:31:36;;;;;;;43.00;26.40;;;10.20;99.90;;;;;;4122035;28;20073;-73
2021/12/16 04:33:39;;;;;;;44.55;26.10;;;10.10;99.90;;;;;;4132037;28;20030;-74
2021/12/16 04:35:40;;;;;;;41.33;24.80;;;10.10;99.90;;;;;;4125434;28;20049;-74
2021/12/16 04:37:41;;;;;;;41.58;25.02;;;10.20;99.90;;;;;;4115002;28;20035;-74
2021/12/16 04:39:46;;;;;;;38.45;23.75;;;10.10;99.90;;;;;;4122149;28;20030;-73
2021/12/16 04:41:49;;;;;;;42.03;24.85;;;10.10;99.90;;;;;;4122570;28;20026;-73
2021/12/16 04:43:53;;;;;;;44.13;25.85;;;10.10;99.90;;;;;;4124538;28;20034;-74
2021/12/16 04:45:54;;;;;;;40.20;24.35;;;10.10;99.90;;;;;;4123769;28;20026;-74
2021/12/16 04:47:54;;;;;;;42.97;25.10;;;10.00;99.90;;;;;;4107213;28;20539;-74
2021/12/16 04:49:55;;;;;;;51.42;27.73;;;10.10;99.90;;;;;;4122411;28;20034;-74
2021/12/16 04:51:58;;;;;;;40.25;25.13;;;10.00;99.90;;;;;;4099317;29;20031;-74
2021/12/16 04:54:03;;;;;;;38.58;24.58;;;10.00;99.90;;;;;;4131380;28;20117;-74
2021/12/16 04:56:06;;;;;;;38.38;23.45;;;10.00;99.90;;;;;;4130582;28;20133;-74
2021/12/16 04:58:06;;;;;;;41.88;25.52;;;10.00;99.90;;;;;;4122141;28;20038;-74
2021/12/16 05:00:12;;;;;;;39.95;24.05;;;10.00;99.90;;;;;;4130803;28;20026;-74
2021/12/16 05:02:16;;;;;;;40.42;25.42;;;10.00;99.90;;;;;;4123965;28;20149;-74
2021/12/16 05:04:17;;;;;;;41.17;25.15;;;10.00;99.90;;;;;;4105400;28;20023;-74
2021/12/16 05:06:18;;;;;;;38.75;23.80;;;9.90;99.90;;;;;;4125101;28;20026;-74
2021/12/16 05:08:19;;;;;;;40.25;23.98;;;9.90;99.90;;;;;;4121576;28;20476;-74
2021/12/16 05:10:20;;;;;;;43.78;26.50;;;9.90;99.90;;;;;;4120083;28;20365;-74
2021/12/16 05:12:24;;;;;;;38.65;24.40;;;9.90;99.90;;;;;;4131090;28;20050;-74
2021/12/16 05:14:25;;;;;;;35.83;23.95;;;9.90;99.90;;;;;;4122628;28;20442;-74
2021/12/16 05:16:26;;;;;;;38.53;22.90;;;9.90;99.90;;;;;;4108856;28;20054;-74
2021/12/16 05:18:31;;;;;;;37.95;23.63;;;9.90;99.90;;;;;;4109154;28;20491;-74
2021/12/16 05:20:41;;;;;;;32.13;21.63;;;9.90;99.90;;;;;;4108620;28;20030;-74
2021/12/16 05:25:07;;;;;;;28.83;18.13;;;9.80;99.90;;;;;;4111488;28;20030;-74
2021/12/16 05:27:09;;;;;;;30.25;19.30;;;9.80;99.90;;;;;;4114377;28;20033;-74
2021/12/16 05:29:11;;;;;;;32.15;19.23;;;9.70;99.90;;;;;;4123983;28;20100;-74
2021/12/16 05:31:13;;;;;;;29.38;18.67;;;9.70;99.90;;;;;;4130822;28;20037;-74
2021/12/16 05:33:14;;;;;;;28.10;18.47;;;9.70;99.90;;;;;;4131025;28;20496;-74
2021/12/16 05:35:20;;;;;;;28.60;18.40;;;9.70;99.90;;;;;;4123205;28;20666;-74
2021/12/16 05:37:21;;;;;;;28.92;18.25;;;9.70;99.90;;;;;;4125953;28;20085;-74
2021/12/16 05:39:22;;;;;;;28.92;17.52;;;9.70;99.90;;;;;;4117715;28;20030;-74
2021/12/16 05:41:24;;;;;;;24.90;15.82;;;9.70;99.90;;;;;;4129982;28;20149;-74
2021/12/16 05:43:26;;;;;;;25.58;16.25;;;9.60;99.90;;;;;;4121931;28;20031;-74
2021/12/16 05:45:28;;;;;;;25.63;16.58;;;9.60;99.90;;;;;;4125156;28;20478;-74
2021/12/16 05:47:28;;;;;;;22.85;14.95;;;9.60;99.90;;;;;;4121047;28;20050;-75
2021/12/16 05:49:29;;;;;;;24.02;15.68;;;9.60;99.90;;;;;;4122815;28;20446;-75
2021/12/16 05:51:33;;;;;;;25.60;16.02;;;9.70;99.90;;;;;;4114204;28;20033;-75
2021/12/16 05:53:34;;;;;;;28.45;17.90;;;9.60;99.90;;;;;;4125359;28;20030;-75
2021/12/16 05:55:35;;;;;;;25.50;17.25;;;9.60;99.90;;;;;;4129857;28;20065;-75
2021/12/16 05:57:37;;;;;;;26.67;17.23;;;9.60;99.90;;;;;;4123530;28;20034;-75
2021/12/16 05:59:38;;;;;;;30.67;17.77;;;9.60;99.90;;;;;;4120037;28;20022;-75
2021/12/16 06:01:40;;;;;;;29.95;19.08;;;9.60;99.90;;;;;;4133437;28;20090;-75
2021/12/16 06:03:42;;;;;;;32.30;19.42;;;9.60;99.90;;;;;;4124660;28;20035;-75
2021/12/16 06:05:43;;;;;;;32.60;19.85;;;9.60;99.90;;;;;;4132627;28;20034;-75
2021/12/16 06:07:44;;;;;;;33.22;20.05;;;9.60;99.90;;;;;;4133968;28;20089;-75
2021/12/16 06:09:47;;;;;;;30.45;19.90;;;9.50;99.90;;;;;;4127520;28;20482;-75
2021/12/16 06:11:51;;;;;;;25.13;16.63;;;9.50;99.90;;;;;;4124285;28;20038;-75
2021/12/16 06:28:08;;;;;;;29.25;17.60;;;9.20;99.90;;;;;;4116612;28;20026;-75
2021/12/16 06:30:13;;;;;;;29.20;18.10;;;9.20;99.90;;;;;;4118833;28;20026;-74
2021/12/16 06:32:14;;;;;;;30.67;19.27;;;9.20;99.90;;;;;;4122446;28;20027;-74
2021/12/16 06:34:15;;;;;;;33.22;19.65;;;9.10;99.90;;;;;;4112140;28;20027;-75
2021/12/16 06:36:16;;;;;;;31.17;18.52;;;9.10;99.90;;;;;;4122035;28;20026;-74
2021/12/16 06:38:17;;;;;;;35.00;21.08;;;9.10;99.90;;;;;;4130665;28;20029;-75
2021/12/16 06:40:18;;;;;;;29.30;17.98;;;9.10;99.90;;;;;;4124727;28;20033;-75
2021/12/16 06:42:19;;;;;;;27.17;17.48;;;9.10;99.90;;;;;;4129067;28;20026;-75
2021/12/16 06:44:29;;;;;;;29.63;17.25;;;9.10;99.90;;;;;;4127634;28;20198;-75
2021/12/16 06:46:34;;;;;;;27.20;17.10;;;9.10;99.90;;;;;;4111224;28;20110;-75
2021/12/16 06:48:38;;;;;;;23.05;15.77;;;9.10;99.90;;;;;;4123233;28;20124;-74
2021/12/16 06:52:48;;;;;;;25.77;16.95;;;9.10;99.90;;;;;;4130938;28;20446;-75
2021/12/16 06:59:20;;;;;;;30.92;18.73;;;9.10;99.90;;;;;;4127871;28;20053;-75
2021/12/16 07:01:38;;;;;;;31.85;18.75;;;9.10;99.90;;;;;;4126621;28;20558;-75
2021/12/16 07:03:50;;;;;;;29.15;17.02;;;9.10;99.90;;;;;;4131040;28;20081;-75
2021/12/16 07:05:54;;;;;;;30.27;17.20;;;9.10;99.90;;;;;;4107780;28;20055;-75
2021/12/16 07:07:56;;;;;;;30.55;18.63;;;9.20;99.90;;;;;;4123383;28;20042;-75
2021/12/16 07:09:56;;;;;;;29.70;17.45;;;9.20;99.90;;;;;;4122773;28;20570;-75
2021/12/16 07:11:59;;;;;;;34.05;18.98;;;9.20;99.90;;;;;;4121921;28;20030;-75
2021/12/16 07:14:01;;;;;;;35.78;19.00;;;9.20;99.90;;;;;;4106098;28;20027;-75
2021/12/16 07:16:04;;;;;;;36.95;19.27;;;9.20;99.90;;;;;;4122533;28;20031;-73
2021/12/16 07:18:04;;;;;;;33.75;19.20;;;9.20;99.90;;;;;;4135893;28;20468;-73
2021/12/16 07:20:08;;;;;;;36.83;20.63;;;9.20;99.90;;;;;;4121507;28;20545;-73
2021/12/16 07:22:11;;;;;;;37.50;20.00;;;9.10;99.90;;;;;;4127780;28;20034;-73
2021/12/16 07:24:14;;;;;;;;;;;9.10;99.90;;;;;;4120838;28;20042;-72
2021/12/16 07:26:15;;;;;;;38.92;21.70;;;9.00;99.90;;;;;;4127307;28;19913;-72
2021/12/16 07:28:16;;;;;;;38.65;21.25;;;8.90;99.90;;;;;;4132989;28;20105;-72
2021/12/16 07:30:19;;;;;;;34.35;20.25;;;8.90;99.90;;;;;;4126210;28;20558;-73
2021/12/16 07:32:20;;;;;;;37.83;21.67;;;8.90;99.90;;;;;;4126706;28;20030;-73
2021/12/16 07:34:21;;;;;;;39.10;22.55;;;8.80;99.90;;;;;;4111362;28;20125;-73
2021/12/16 07:36:22;;;;;;;40.88;22.42;;;8.80;99.90;;;;;;4122439;28;20093;-72
2021/12/16 07:38:23;;;;;;;40.28;22.20;;;8.90;99.90;;;;;;4132781;28;20039;-72
2021/12/16 07:40:26;;;;;;;44.85;22.60;;;8.90;99.90;;;;;;4122947;28;20022;-73
2021/12/16 07:42:31;;;;;;;43.90;23.35;;;8.90;99.90;;;;;;4132509;28;20026;-73
2021/12/16 07:44:34;;;;;;;45.55;23.50;;;9.00;99.90;;;;;;4123687;28;20030;-72
2021/12/16 07:46:35;;;;;;;46.33;23.25;;;9.00;99.90;;;;;;4126932;28;20084;-72
2021/12/16 07:48:35;;;;;;;50.42;24.88;;;9.00;99.90;;;;;;4128354;28;20038;-72
2021/12/16 07:50:37;;;;;;;49.28;25.05;;;9.10;99.90;;;;;;4117812;28;20026;-73
2021/12/16 07:52:40;;;;;;;47.63;24.38;;;9.10;99.90;;;;;;4124117;28;20101;-72
2021/12/16 07:54:41;;;;;;;48.65;23.98;;;9.20;99.90;;;;;;4128684;28;20130;-72
2021/12/16 07:56:42;;;;;;;52.30;24.35;;;9.20;99.90;;;;;;4115974;28;20030;-72
2021/12/16 07:58:42;;;;;;;48.13;24.40;;;9.20;99.90;;;;;;4132737;28;20030;-73
2021/12/16 08:00:43;;;;;;;48.50;24.63;;;9.30;99.90;;;;;;4122545;28;20073;-72
2021/12/16 08:02:44;;;;;;;51.72;25.55;;;9.30;99.90;;;;;;4132152;28;20244;-73
2021/12/16 08:04:45;;;;;;;50.30;25.15;;;9.40;99.90;;;;;;4122750;28;20039;-73
2021/12/16 08:06:49;;;;;;;50.70;25.33;;;9.40;99.90;;;;;;4131848;28;20030;-73
2021/12/16 08:08:57;;;;;;;43.80;23.92;;;9.40;99.90;;;;;;4125059;28;20426;-72
2021/12/16 08:10:58;;;;;;;41.20;22.70;;;9.40;99.90;;;;;;4120123;28;20037;-72
2021/12/16 08:12:59;;;;;;;40.88;23.60;;;9.40;99.90;;;;;;4119233;28;20113;-72
2021/12/16 08:15:00;;;;;;;44.28;25.73;;;9.40;99.90;;;;;;4121398;28;20037;-72
2021/12/16 08:17:01;;;;;;;39.47;23.63;;;9.50;99.90;;;;;;4126980;28;20053;-72
2021/12/16 08:19:03;;;;;;;41.63;23.38;;;9.50;99.90;;;;;;4094621;29;20031;-72
2021/12/16 08:21:05;;;;;;;39.22;22.45;;;9.50;99.90;;;;;;4118685;28;20026;-73
2021/12/16 08:23:06;;;;;;;46.67;24.38;;;9.50;99.90;;;;;;4132010;28;20372;-72
2021/12/16 08:25:07;;;;;;;40.28;22.52;;;9.50;99.90;;;;;;4109947;28;20122;-72
2021/12/16 08:27:09;;;;;;;43.13;24.27;;;9.50;99.90;;;;;;4122794;28;20032;-73
2021/12/16 08:29:10;;;;;;;41.70;23.80;;;9.50;99.90;;;;;;4092861;29;20027;-73
2021/12/16 08:31:11;;;;;;;39.72;22.92;;;9.50;99.90;;;;;;4123067;28;20032;-73
2021/12/16 08:33:13;;;;;;;41.38;25.17;;;9.50;99.90;;;;;;4125740;28;20062;-72
2021/12/16 08:35:14;;;;;;;49.73;27.60;;;9.50;99.90;;;;;;4122228;28;20046;-72
2021/12/16 08:37:15;;;;;;;40.67;24.83;;;9.50;99.90;;;;;;4122722;28;20369;-73
2021/12/16 08:39:16;;;;;;;42.72;24.20;;;9.50;99.90;;;;;;4115322;28;20034;-72
2021/12/16 08:41:29;;;;;;;43.25;25.25;;;9.50;99.90;;;;;;4121605;28;20392;-72
2021/12/16 08:43:30;;;;;;;39.90;24.15;;;9.50;99.90;;;;;;4120032;28;20480;-72
2021/12/16 08:45:32;;;;;;;39.88;24.13;;;9.50;99.90;;;;;;4101890;28;20030;-72
2021/12/16 08:47:33;;;;;;;43.00;24.92;;;9.50;99.90;;;;;;4127364;28;20041;-73
2021/12/16 08:49:34;;;;;;;40.08;23.27;;;9.50;99.90;;;;;;4123058;28;20486;-73
2021/12/16 08:51:42;;;;;;;37.30;21.98;;;9.50;99.90;;;;;;4130703;28;20030;-73
2021/12/16 08:53:43;;;;;;;36.75;22.60;;;9.50;99.90;;;;;;4126165;28;20030;-73
2021/12/16 08:55:45;;;;;;;34.72;21.38;;;9.50;99.90;;;;;;4126469;28;20026;-73
2021/12/16 08:57:46;;;;;;;35.58;22.13;;;9.50;99.90;;;;;;4121072;28;20050;-73
2021/12/16 08:59:48;;;;;;;34.85;21.23;;;9.50;99.90;;;;;;4127392;28;20090;-72
2021/12/16 09:01:52;;;;;;;39.72;23.33;;;9.50;99.90;;;;;;4120055;28;20126;-73
2021/12/16 09:03:54;;;;;;;35.17;21.70;;;9.50;99.90;;;;;;4130436;28;20050;-73
2021/12/16 09:05:55;;;;;;;37.22;21.92;;;9.50;99.90;;;;;;4120005;28;20033;-72
2021/12/16 09:07:56;;;;;;;40.67;24.77;;;9.50;99.90;;;;;;4130967;28;20030;-73
2021/12/16 09:09:58;;;;;;;42.85;23.90;;;9.50;99.90;;;;;;4118499;28;20062;-73
2021/12/16 09:12:13;;;;;;;35.35;21.00;;;9.50;99.90;;;;;;4119560;28;20565;-73
2021/12/16 09:14:14;;;;;;;35.38;21.67;;;9.50;99.90;;;;;;4128390;28;20030;-73
2021/12/16 09:16:19;;;;;;;37.22;23.35;;;9.50;99.90;;;;;;4119911;28;20041;-73
2021/12/16 09:18:24;;;;;;;37.03;23.05;;;9.50;99.90;;;;;;4122006;28;20483;-73
2021/12/16 09:20:25;;;;;;;36.70;21.08;;;9.50;99.90;;;;;;4121277;28;20479;-72
2021/12/16 09:22:27;;;;;;;40.20;24.48;;;9.50;99.90;;;;;;4120514;28;20118;-72
2021/12/16 09:24:28;;;;;;;43.13;24.15;;;9.50;99.90;;;;;;4104749;28;20065;-72
2021/12/16 09:26:29;;;;;;;35.33;21.75;;;9.40;99.90;;;;;;4121248;28;20074;-72
2021/12/16 09:28:30;;;;;;;30.00;17.95;;;9.40;99.90;;;;;;4121021;28;20026;-72
2021/12/16 09:30:34;;;;;;;32.10;19.77;;;9.50;99.90;;;;;;4124469;28;20027;-72
2021/12/16 09:32:36;;;;;;;39.17;22.63;;;9.50;99.90;;;;;;4126308;28;20038;-72
2021/12/16 09:34:39;;;;;;;37.75;22.45;;;9.60;99.90;;;;;;4125066;28;20027;-73
2021/12/16 09:36:43;;;;;;;39.28;22.58;;;9.50;99.90;;;;;;4121235;28;20038;-72
2021/12/16 09:38:46;;;;;;;42.95;24.33;;;9.50;99.90;;;;;;4109107;28;20511;-72
2021/12/16 09:40:52;;;;;;;35.08;20.60;;;9.50;99.90;;;;;;4129323;28;20039;-72
2021/12/16 09:42:55;;;;;;;31.33;20.02;;;9.50;99.90;;;;;;4121816;28;20166;-72
2021/12/16 09:44:56;;;;;;;35.38;21.45;;;9.50;99.90;;;;;;4122132;28;20483;-72
2021/12/16 09:46:58;;;;;;;33.55;20.85;;;9.50;99.90;;;;;;4117972;28;20022;-72
2021/12/16 09:48:59;;;;;;;;;;;9.50;99.90;;;;;;4119809;28;20033;-72
2021/12/16 09:51:01;;;;;;;30.90;18.70;;;9.60;99.90;;;;;;4121723;28;19906;-72
2021/12/16 09:53:03;;;;;;;29.70;19.67;;;9.60;99.90;;;;;;4120008;28;20031;-72
2021/12/16 09:55:05;;;;;;;32.35;19.95;;;9.60;99.90;;;;;;4121437;28;20086;-72
2021/12/16 09:57:07;;;;;;;31.23;19.13;;;9.70;99.90;;;;;;4130279;28;20034;-72
2021/12/16 09:59:12;;;;;;;31.45;20.50;;;9.70;99.90;;;;;;4121557;28;20038;-72
2021/12/16 10:01:15;;;;;;;31.42;19.85;;;9.70;99.90;;;;;;4120408;28;20129;-72
2021/12/16 10:03:16;;;;;;;;;;;9.70;99.90;;;;;;4121902;28;20086;-72
2021/12/16 10:05:17;;;;;;;28.80;17.63;;;9.70;99.90;;;;;;4120792;28;19956;-72
2021/12/16 10:07:21;;;;;;;30.35;18.88;;;9.70;99.90;;;;;;4130819;28;20506;-72
2021/12/16 10:09:22;;;;;;;30.45;18.90;;;9.80;99.90;;;;;;4121257;28;20419;-72
2021/12/16 10:11:23;;;;;;;32.05;19.48;;;9.80;99.90;;;;;;4119383;28;20496;-72
2021/12/16 10:13:36;;;;;;;29.08;17.52;;;9.80;99.90;;;;;;4108990;28;20041;-72
2021/12/16 10:17:42;;;;;;;28.40;17.60;;;9.80;99.90;;;;;;4121393;28;19910;-72
2021/12/16 10:19:43;;;;;;;28.30;17.55;;;9.80;99.90;;;;;;4085929;29;20121;-72
2021/12/16 10:21:45;;;;;;;32.60;18.83;;;9.90;99.90;;;;;;4120561;28;20038;-72
2021/12/16 10:23:46;;;;;;;36.13;20.33;;;9.90;99.90;;;;;;4130806;28;20037;-72
2021/12/16 10:25:51;;;;;;;30.35;18.30;;;9.90;99.90;;;;;;4126334;28;20058;-73
2021/12/16 10:27:52;;;;;;;30.05;18.35;;;9.90;99.90;;;;;;4115018;28;20026;-72
2021/12/16 10:30:00;;;;;;;31.27;20.30;;;10.00;99.90;;;;;;4120930;28;20360;-72
2021/12/16 10:32:01;;;;;;;39.45;21.48;;;9.90;99.90;;;;;;4108970;28;20035;-72
2021/12/16 10:34:05;;;;;;;35.33;19.45;;;10.00;99.90;;;;;;4113511;28;20038;-72
2021/12/16 10:36:15;;;;;;;33.00;19.23;;;10.00;99.90;;;;;;4117672;28;20041;-72
2021/12/16 10:38:19;;;;;;;35.42;19.45;;;9.90;99.90;;;;;;4121886;28;20376;-72
2021/12/16 10:40:34;;;;;;;37.17;20.58;;;10.00;99.90;;;;;;4129723;28;20034;-72
2021/12/16 10:42:46;;;;;;;34.13;21.10;;;10.00;99.90;;;;;;4132081;28;20549;-72
2021/12/16 10:44:47;;;;;;;36.15;20.63;;;10.00;99.90;;;;;;4124461;28;20587;-72
2021/12/16 10:46:54;;;;;;;43.17;22.20;;;10.00;99.90;;;;;;4123506;28;20035;-72
2021/12/16 10:49:01;;;;;;;40.97;22.40;;;10.00;99.90;;;;;;4132750;28;20530;-72
2021/12/16 10:51:07;;;;;;;44.10;24.13;;;10.00;99.90;;;;;;4123413;28;20062;-72
2021/12/16 10:53:07;;;;;;;42.80;24.52;;;10.00;99.90;;;;;;4115286;28;20031;-72
2021/12/16 10:55:08;;;;;;;38.15;21.58;;;10.00;99.90;;;;;;4111105;28;20105;-72
2021/12/16 10:57:25;;;;;;;37.38;21.88;;;10.00;99.90;;;;;;4125444;28;20039;-72
2021/12/16 10:59:29;;;;;;;27.35;17.25;;;10.00;99.90;;;;;;4122969;28;20121;-72
2021/12/16 11:01:34;;;;;;;36.85;22.25;;;10.10;99.90;;;;;;4125501;28;20526;-72
2021/12/16 11:03:43;;;;;;;32.80;18.77;;;10.00;99.90;;;;;;4137747;28;20053;-72
2021/12/16 11:05:43;;;;;;;32.78;18.75;;;10.10;99.90;;;;;;4120602;28;20035;-72
2021/12/16 11:07:48;;;;;;;31.13;18.13;;;10.10;99.90;;;;;;4132688;28;20557;-72
2021/12/16 11:09:58;;;;;;;35.03;20.00;;;10.10;99.90;;;;;;4132785;28;20026;-73
2021/12/16 11:12:11;;;;;;;34.65;21.48;;;10.10;99.90;;;;;;4092393;29;20481;-72
2021/12/16 11:14:11;;;;;;;;;;;10.10;99.90;;;;;;4125706;28;20399;-72
2021/12/16 11:16:12;;;;;;;32.90;20.13;;;10.20;99.90;;;;;;4127737;28;19906;-73
2021/12/16 11:18:20;;;;;;;32.22;18.20;;;10.10;99.90;;;;;;4126003;28;20395;-72
2021/12/16 11:20:30;;;;;;;35.83;20.27;;;10.10;99.90;;;;;;4120636;28;20395;-72
2021/12/16 11:22:34;;;;;;;28.67;17.85;;;10.10;99.90;;;;;;4116826;28;20031;-72
2021/12/16 11:24:35;;;;;;;31.02;18.33;;;10.10;99.90;;;;;;4129082;28;20506;-72
2021/12/16 11:26:38;;;;;;;41.92;22.42;;;10.20;99.90;;;;;;4107807;28;20031;-72
2021/12/16 11:28:42;;;;;;;34.85;20.60;;;10.20;99.90;;;;;;4122792;28;20479;-72
2021/12/16 11:30:56;;;;;;;35.20;20.35;;;10.10;99.90;;;;;;4128110;28;20026;-73
2021/12/16 11:33:27;;;;;;;34.65;19.85;;;10.10;99.90;;;;;;4117260;28;20034;-72
2021/12/16 11:35:33;;;;;;;34.60;19.15;;;10.20;99.90;;;;;;4108252;28;20039;-73
2021/12/16 11:37:47;;;;;;;33.92;19.60;;;10.20;99.90;;;;;;4142377;28;20096;-73
2021/12/16 11:39:48;;;;;;;28.77;16.80;;;10.20;99.90;;;;;;4128026;28;20085;-72
2021/12/16 11:41:52;;;;;;;38.67;20.15;;;10.20;99.90;;;;;;4126337;28;20034;-72
2021/12/16 11:44:00;;;;;;;30.58;18.00;;;10.20;99.90;;;;;;4122803;28;20034;-72
2021/12/16 11:46:01;;;;;;;27.45;17.65;;;10.20;99.90;;;;;;4122838;28;20026;-72
2021/12/16 11:48:05;;;;;;;39.10;21.95;;;10.20;99.90;;;;;;4125622;28;20029;-72
2021/12/16 11:50:07;;;;;;;35.08;20.17;;;10.20;99.90;;;;;;4131729;28;20170;-72
2021/12/16 11:52:19;;;;;;;28.00;16.48;;;10.10;99.90;;;;;;4123346;28;20073;-73
2021/12/16 11:54:39;;;;;;;34.35;20.10;;;10.20;99.90;;;;;;4126226;28;20038;-72
2021/12/16 11:57:00;;;;;;;31.60;18.73;;;10.20;99.90;;;;;;4124232;28;20443;-72
2021/12/16 11:59:00;;;;;;;34.45;18.85;;;10.20;99.90;;;;;;4087473;29;20043;-72
2021/12/16 12:01:15;;;;;;;32.20;19.33;;;10.20;99.90;;;;;;4124457;28;20050;-72
2021/12/16 12:03:16;;;;;;;31.20;18.10;;;10.20;99.90;;;;;;4093011;29;20019;-73
2021/12/16 12:05:16;;;;;;;40.10;21.75;;;10.20;99.90;;;;;;4115345;28;20034;-72
2021/12/16 12:07:18;;;;;;;35.40;20.45;;;10.30;99.90;;;;;;4100844;29;20030;-72
2021/12/16 12:09:20;;;;;;;30.63;18.50;;;10.30;99.90;;;;;;4121692;28;20022;-72
2021/12/16 12:11:27;;;;;;;39.40;21.27;;;10.30;99.90;;;;;;4131665;28;20026;-72
2021/12/16 12:13:38;;;;;;;34.20;20.40;;;10.30;99.90;;;;;;4122537;28;20395;-73
2021/12/16 12:15:56;;;;;;;37.05;19.75;;;10.30;99.90;;;;;;4136590;28;20482;-72
2021/12/16 12:17:57;;;;;;;35.85;19.75;;;10.40;99.90;;;;;;4122643;28;20049;-72
2021/12/16 12:19:58;;;;;;;37.75;21.17;;;10.30;99.90;;;;;;4122965;28;20034;-72
2021/12/16 12:22:01;;;;;;;37.80;20.80;;;10.30;99.90;;;;;;4131105;28;20034;-72
2021/12/16 12:24:12;;;;;;;;;;;10.30;99.90;;;;;;4132687;28;20076;-72
2021/12/16 12:26:16;;;;;;;29.48;17.45;;;10.30;99.90;;;;;;4109340;28;19913;-72
2021/12/16 12:28:17;;;;;;;30.80;18.73;;;10.30;99.90;;;;;;4108787;28;20046;-73
2021/12/16 12:30:19;;;;;;;33.55;18.17;;;10.30;99.90;;;;;;4122310;28;20054;-72
2021/12/16 12:32:32;;;;;;;36.10;19.45;;;10.40;99.90;;;;;;4122529;28;20487;-72
2021/12/16 12:34:36;;;;;;;29.92;17.90;;;10.40;99.90;;;;;;4120614;28;20432;-72
2021/12/16 12:36:37;;;;;;;33.08;18.17;;;10.40;99.90;;;;;;4122480;28;20026;-72
2021/12/16 12:38:38;;;;;;;33.10;19.77;;;10.50;99.90;;;;;;4127037;28;20077;-72
2021/12/16 12:40:40;;;;;;;32.72;18.92;;;10.50;99.90;;;;;;4122061;28;20035;-73
2021/12/16 12:42:42;;;;;;;32.17;18.50;;;10.40;99.90;;;;;;4127712;28;20045;-73
2021/12/16 12:44:44;;;;;;;37.42;21.05;;;10.50;99.90;;;;;;4121416;28;20635;-72
2021/12/16 12:46:46;;;;;;;32.80;18.37;;;10.50;99.90;;;;;;4104648;28;20046;-72
2021/12/16 12:48:47;;;;;;;34.75;19.00;;;10.50;99.90;;;;;;4125531;28;20486;-72
2021/12/16 12:50:51;;;;;;;39.65;20.75;;;10.50;99.90;;;;;;4122961;28;20038;-73
2021/12/16 12:52:54;;;;;;;37.33;21.98;;;10.40;99.90;;;;;;4124953;28;20519;-72
2021/12/16 12:55:13;;;;;;;41.50;21.55;;;10.50;99.90;;;;;;4123393;28;20088;-72
2021/12/16 12:57:29;;;;;;;35.30;18.55;;;10.40;99.90;;;;;;4104791;28;20050;-72
2021/12/16 12:59:36;;;;;;;36.58;18.90;;;10.50;99.90;;;;;;4124668;28;20057;-73